Fortune Bird — VRHQ8 — position and weather

sailwx.info

Track history (hours):
 
Tides and Currents Weather Stations Pressure Air Temp Water Temp Dewpoint Dewpoint Depression Visibility Wind Speed Wind Dir Waves Ship Positions

Fortune Bird

Last reported at 2018-Feb-07 05:53 UTC. Time now 2018-Feb-22 15:10 UTC.
Position N 31°01' E 032°19'.
Warning: this ship's position is 15 days out of date.

Length 190 m; draft 12.6 m.

Type: Cargo ship. MMSI: 477963100.

Date/timePositionNaut miles runAvg speedWind from/ knotsBaromVisibWave heightAir tempDewpointWater temp
2018-Feb-07 05:53N 31°01' E 032°19'3 8.3
2018-Feb-07 05:30N 31°04' E 032°19'4 8.3
2018-Feb-07 04:59N 31°08' E 032°19'7 6.4
2018-Feb-07 03:52N 31°15' E 032°21'4 9.8
2018-Feb-07 03:29N 31°19' E 032°22'6 9.0
2018-Feb-07 02:51N 31°24' E 032°23'2 5.0
2018-Feb-07 02:30N 31°24' E 032°21'3 2.6
2018-Feb-07 01:30N 31°23' E 032°19'0 0.1
2018-Feb-07 00:56N 31°23' E 032°19'0 0.1
2018-Feb-07 00:26N 31°23' E 032°19'1 0.4
2018-Feb-06 20:55N 31°24' E 032°19'2 4.3
2018-Feb-06 20:28N 31°23' E 032°22'1 1.4
2018-Feb-06 19:29N 31°24' E 032°20'2 4.6
2018-Feb-06 19:00N 31°26' E 032°19'8 8.4
2018-Feb-06 18:00N 31°32' E 032°12'8 8.5
2018-Feb-06 17:05N 31°37' E 032°06'1211.0
2018-Feb-06 16:00N 31°46' E 031°56'611.5
2018-Feb-06 15:30N 31°50' E 031°51'611.6
2018-Feb-06 14:59N 31°54' E 031°46'611.5
2018-Feb-06 14:29N 31°57' E 031°40'2112.0
2018-Feb-06 12:46N 32°03' E 031°17'1012.1
2018-Feb-06 11:58N 32°06' E 031°06'612.3
2018-Feb-06 11:30N 32°07' E 030°59'  
2018-Feb-03 13:12N 36°19' E 014°54'212.5
2018-Feb-03 13:00N 36°19' E 014°51'612.4
2018-Feb-03 12:30N 36°21' E 014°44'612.2
2018-Feb-03 11:59N 36°23' E 014°36'611.9
2018-Feb-03 11:29N 36°25' E 014°29'612.1
2018-Feb-03 11:00N 36°27' E 014°22'612.4
2018-Feb-03 10:30N 36°29' E 014°15'612.3
2018-Feb-03 10:00N 36°31' E 014°08'712.3
2018-Feb-03 09:28N 36°33' E 014°00'612.2
2018-Feb-03 09:00N 36°35' E 013°53'712.2
2018-Feb-03 08:28N 36°37' E 013°46'2712.5
2018-Feb-03 06:19N 36°46' E 013°14'412.4
2018-Feb-03 06:00N 36°48' E 013°10'612.3
2018-Feb-03 05:30N 36°49' E 013°02'612.3
2018-Feb-03 05:00N 36°51' E 012°55'1313.0
2018-Feb-03 04:00N 36°56' E 012°40'713.3
2018-Feb-03 03:30N 36°58' E 012°32'  
2018-Jan-31 04:42N 36°00' W 005°08'210.7
2018-Jan-31 04:30N 35°60' W 005°10'511.0
2018-Jan-31 04:00N 35°59' W 005°17'5 9.7
2018-Jan-31 03:30N 35°58' W 005°23'4 8.6
2018-Jan-31 03:00N 35°57' W 005°28'237 5.7
2018-Jan-29 09:34N 37°47' W 009°51'211.3
2018-Jan-29 09:21N 37°49' W 009°52'411.4
2018-Jan-29 08:59N 37°54' W 009°53'611.6
2018-Jan-29 08:30N 37°59' W 009°54'2012.0
2018-Jan-29 06:52N 38°18' W 010°00'512.1
2018-Jan-29 06:28N 38°23' W 010°01'612.1
2018-Jan-29 06:00N 38°28' W 010°03'712.0
2018-Jan-29 05:26N 38°35' W 010°04'511.8
2018-Jan-29 05:00N 38°40' W 010°05'611.5
2018-Jan-29 04:29N 38°46' W 010°06'611.7
2018-Jan-29 04:00N 38°52' W 010°07'611.7
2018-Jan-29 03:30N 38°57' W 010°08'611.6
2018-Jan-29 03:00N 39°03' W 010°10'611.6
2018-Jan-29 02:30N 39°09' W 010°11'611.5
2018-Jan-29 02:00N 39°14' W 010°12'  
Track history (hours):
 
Tides and Currents Weather Stations Pressure Air Temp Water Temp Dewpoint Dewpoint Depression Visibility Wind Speed Wind Dir Waves Ship Positions

Fortune Bird

Last reported at 2018-Feb-07 05:53 UTC. Time now 2018-Feb-22 15:10 UTC.
Position N 31°01' E 032°19'.
Warning: this ship's position is 15 days out of date.

Length 190 m; draft 12.6 m.

Type: Cargo ship. MMSI: 477963100.

Date/timePositionNaut miles runAvg speedWind from/ knotsBaromVisibWave heightAir tempDewpointWater temp
2018-Feb-07 05:53N 31°01' E 032°19'3 8.3
2018-Feb-07 05:30N 31°04' E 032°19'4 8.3
2018-Feb-07 04:59N 31°08' E 032°19'7 6.4
2018-Feb-07 03:52N 31°15' E 032°21'4 9.8
2018-Feb-07 03:29N 31°19' E 032°22'6 9.0
2018-Feb-07 02:51N 31°24' E 032°23'2 5.0
2018-Feb-07 02:30N 31°24' E 032°21'3 2.6
2018-Feb-07 01:30N 31°23' E 032°19'0 0.1
2018-Feb-07 00:56N 31°23' E 032°19'0 0.1
2018-Feb-07 00:26N 31°23' E 032°19'1 0.4
2018-Feb-06 20:55N 31°24' E 032°19'2 4.3
2018-Feb-06 20:28N 31°23' E 032°22'1 1.4
2018-Feb-06 19:29N 31°24' E 032°20'2 4.6
2018-Feb-06 19:00N 31°26' E 032°19'8 8.4
2018-Feb-06 18:00N 31°32' E 032°12'8 8.5
2018-Feb-06 17:05N 31°37' E 032°06'1211.0
2018-Feb-06 16:00N 31°46' E 031°56'611.5
2018-Feb-06 15:30N 31°50' E 031°51'611.6
2018-Feb-06 14:59N 31°54' E 031°46'611.5
2018-Feb-06 14:29N 31°57' E 031°40'2112.0
2018-Feb-06 12:46N 32°03' E 031°17'1012.1
2018-Feb-06 11:58N 32°06' E 031°06'612.3
2018-Feb-06 11:30N 32°07' E 030°59'  
2018-Feb-03 13:12N 36°19' E 014°54'212.5
2018-Feb-03 13:00N 36°19' E 014°51'612.4
2018-Feb-03 12:30N 36°21' E 014°44'612.2
2018-Feb-03 11:59N 36°23' E 014°36'611.9
2018-Feb-03 11:29N 36°25' E 014°29'612.1
2018-Feb-03 11:00N 36°27' E 014°22'612.4
2018-Feb-03 10:30N 36°29' E 014°15'612.3
2018-Feb-03 10:00N 36°31' E 014°08'712.3
2018-Feb-03 09:28N 36°33' E 014°00'612.2
2018-Feb-03 09:00N 36°35' E 013°53'712.2
2018-Feb-03 08:28N 36°37' E 013°46'2712.5
2018-Feb-03 06:19N 36°46' E 013°14'412.4
2018-Feb-03 06:00N 36°48' E 013°10'612.3
2018-Feb-03 05:30N 36°49' E 013°02'612.3
2018-Feb-03 05:00N 36°51' E 012°55'1313.0
2018-Feb-03 04:00N 36°56' E 012°40'713.3
2018-Feb-03 03:30N 36°58' E 012°32'  
2018-Jan-31 04:42N 36°00' W 005°08'210.7
2018-Jan-31 04:30N 35°60' W 005°10'511.0
2018-Jan-31 04:00N 35°59' W 005°17'5 9.7
2018-Jan-31 03:30N 35°58' W 005°23'4 8.6
2018-Jan-31 03:00N 35°57' W 005°28'237 5.7
2018-Jan-29 09:34N 37°47' W 009°51'211.3
2018-Jan-29 09:21N 37°49' W 009°52'411.4
2018-Jan-29 08:59N 37°54' W 009°53'611.6
2018-Jan-29 08:30N 37°59' W 009°54'2012.0
2018-Jan-29 06:52N 38°18' W 010°00'512.1
2018-Jan-29 06:28N 38°23' W 010°01'612.1
2018-Jan-29 06:00N 38°28' W 010°03'712.0
2018-Jan-29 05:26N 38°35' W 010°04'511.8
2018-Jan-29 05:00N 38°40' W 010°05'611.5
2018-Jan-29 04:29N 38°46' W 010°06'611.7
2018-Jan-29 04:00N 38°52' W 010°07'611.7
2018-Jan-29 03:30N 38°57' W 010°08'611.6
2018-Jan-29 03:00N 39°03' W 010°10'611.6
2018-Jan-29 02:30N 39°09' W 010°11'611.5
2018-Jan-29 02:00N 39°14' W 010°12'  

Dump ship's entire track history